Time;durP1;ratioP1;P1;durP2;ratioP2;P2;SDS_P1;SDS_P2;PMS_P1;PMS_P2;Temp;Humidity;BMP_temperature;BMP_pressure;BME280_temperature;BME280_humidity;BME280_pressure;Samples;Min_cycle;Max_cycle;Signal;HPM_P1;HPM_P2
2023/10/01 00:00:29;;;;;;;20.50;6.88;;;;;;;-145.67;100.00;66521.78;6181735;23;20008;-93
2023/10/01 00:02:57;;;;;;;22.05;6.97;;;;;;;-145.67;100.00;66521.78;6182280;23;20001;-94
2023/10/01 00:05:24;;;;;;;18.75;6.85;;;;;;;-145.67;100.00;66521.78;6182350;23;20017;-92
2023/10/01 00:07:51;;;;;;;20.70;8.65;;;;;;;-145.67;100.00;66521.78;6182030;23;20005;-94
2023/10/01 00:10:18;;;;;;;15.75;6.15;;;;;;;-145.67;100.00;66521.78;6181259;23;20088;-94
2023/10/01 00:12:46;;;;;;;18.52;6.60;;;;;;;-145.67;100.00;66521.78;6181742;23;20000;-93
2023/10/01 00:15:14;;;;;;;19.67;6.55;;;;;;;-145.67;100.00;66521.78;6181782;23;20035;-94
2023/10/01 00:17:40;;;;;;;16.25;6.55;;;;;;;-145.67;100.00;66521.78;6181742;23;20080;-93
2023/10/01 00:20:20;;;;;;;24.27;10.18;;;;;;;-145.67;100.00;66521.78;6180952;23;20501;-93
2023/10/01 00:22:46;;;;;;;23.33;7.95;;;;;;;-145.67;100.00;66521.78;6181792;23;20024;-91
2023/10/01 00:25:12;;;;;;;14.48;6.65;;;;;;;-145.67;100.00;66521.78;6180976;23;20304;-93
2023/10/01 00:27:38;;;;;;;19.33;6.85;;;;;;;-145.67;100.00;66521.78;6181611;23;20023;-93
2023/10/01 00:30:07;;;;;;;19.25;7.47;;;;;;;-145.67;100.00;66521.78;6181381;23;20012;-93
2023/10/01 00:32:33;;;;;;;20.77;7.45;;;;;;;-145.67;100.00;66521.78;6156283;23;20391;-93
2023/10/01 00:34:59;;;;;;;22.08;8.20;;;;;;;-145.67;100.00;66521.78;6181429;23;20012;-93
2023/10/01 00:37:24;;;;;;;18.25;8.35;;;;;;;-145.67;100.00;66521.78;6181642;23;20399;-93
2023/10/01 00:39:54;;;;;;;16.08;7.10;;;;;;;-145.67;100.00;66521.78;6180688;23;20035;-93
2023/10/01 00:42:21;;;;;;;18.90;7.15;;;;;;;-145.67;100.00;66521.78;6156022;23;20451;-94
2023/10/01 00:44:47;;;;;;;18.15;7.57;;;;;;;-145.67;100.00;66521.78;6181931;23;20050;-93
2023/10/01 00:47:13;;;;;;;18.67;7.13;;;;;;;-145.67;100.00;66521.78;6181269;23;20040;-93
2023/10/01 00:49:46;;;;;;;20.88;8.55;;;;;;;-145.67;100.00;66521.78;6155609;23;20063;-92
2023/10/01 00:52:12;;;;;;;21.02;8.40;;;;;;;-145.67;100.00;66521.78;6181846;23;20005;-93
2023/10/01 00:54:37;;;;;;;15.68;6.55;;;;;;;-145.67;100.00;66521.78;6180753;23;20068;-93
2023/10/01 00:57:03;;;;;;;19.00;7.20;;;;;;;-145.67;100.00;66521.78;6180922;23;19997;-94
2023/10/01 00:59:32;;;;;;;16.63;5.85;;;;;;;-145.67;100.00;66521.78;6181322;23;20001;-93
2023/10/01 01:01:58;;;;;;;21.08;7.15;;;;;;;-145.67;100.00;66521.78;6181404;23;20008;-93
2023/10/01 01:04:24;;;;;;;25.17;9.60;;;;;;;-145.67;100.00;66521.78;6155078;23;20008;-93
2023/10/01 01:06:50;;;;;;;21.50;8.15;;;;;;;-145.67;100.00;66521.78;6181577;23;20366;-94
2023/10/01 01:09:19;;;;;;;23.42;6.57;;;;;;;-145.67;100.00;66521.78;6179724;23;20001;-92
2023/10/01 01:11:50;;;;;;;20.65;6.43;;;;;;;-145.67;100.00;66521.78;6154960;23;20092;-92
2023/10/01 01:14:16;;;;;;;25.48;8.40;;;;;;;-145.67;100.00;66521.78;6181474;23;20458;-94
2023/10/01 01:16:41;;;;;;;19.95;7.22;;;;;;;-145.67;100.00;66521.78;6181857;23;20005;-93
2023/10/01 01:19:09;;;;;;;17.27;6.90;;;;;;;-145.67;100.00;66521.78;6154821;23;20052;-94
2023/10/01 01:21:34;;;;;;;28.15;8.02;;;;;;;-145.67;100.00;66521.78;6181252;23;20005;-93
2023/10/01 01:24:03;;;;;;;18.83;6.28;;;;;;;-145.67;100.00;66521.78;6179695;23;20089;-93
2023/10/01 01:26:29;;;;;;;17.20;8.20;;;;;;;-145.67;100.00;66521.78;6181453;23;20009;-94
2023/10/01 01:28:54;;;;;;;19.63;6.90;;;;;;;-145.67;100.00;66521.78;6181068;23;20048;-94
2023/10/01 01:31:26;;;;;;;16.88;5.43;;;;;;;-145.67;100.00;66521.78;6180403;23;20016;-94
2023/10/01 01:33:56;;;;;;;19.90;7.10;;;;;;;-145.67;100.00;66521.78;6180979;23;20009;-93
2023/10/01 01:36:49;;;;;;;18.52;6.30;;;;;;;-145.67;100.00;66521.78;6181353;23;20016;-93
2023/10/01 01:39:32;;;;;;;14.60;6.30;;;;;;;-145.67;100.00;66521.78;6181311;23;20051;-93
2023/10/01 01:41:57;;;;;;;19.30;6.82;;;;;;;-145.67;100.00;66521.78;6155187;23;20334;-93
2023/10/01 01:44:23;;;;;;;15.13;6.25;;;;;;;-145.67;100.00;66521.78;6180721;23;20020;-92
2023/10/01 01:46:49;;;;;;;19.17;6.78;;;;;;;-145.67;100.00;66521.78;6180632;23;20012;-92
2023/10/01 01:49:18;;;;;;;17.23;7.10;;;;;;;-145.67;100.00;66521.78;6180746;23;20005;-92
2023/10/01 01:51:57;;;;;;;16.33;6.20;;;;;;;-145.67;100.00;66521.78;6179670;23;20008;-94
2023/10/01 01:54:29;;;;;;;16.52;6.22;;;;;;;-145.67;100.00;66521.78;6180947;23;20033;-94
2023/10/01 01:56:55;;;;;;;19.38;7.55;;;;;;;-145.67;100.00;66521.78;6180415;23;20393;-93
2023/10/01 01:59:27;;;;;;;17.25;7.03;;;;;;;-145.67;100.00;66521.78;6181157;23;20004;-91
2023/10/01 02:01:53;;;;;;;17.75;5.90;;;;;;;-145.67;100.00;66521.78;6180112;23;20005;-91
2023/10/01 02:04:19;;;;;;;18.13;6.53;;;;;;;-145.67;100.00;66521.78;6154227;23;20024;-93
2023/10/01 02:06:47;;;;;;;15.48;5.07;;;;;;;-145.67;100.00;66521.78;6180540;23;20080;-92
2023/10/01 02:09:14;;;;;;;15.27;5.95;;;;;;;-145.67;100.00;66521.78;6181030;23;20005;-95
2023/10/01 02:11:40;;;;;;;18.10;5.95;;;;;;;-145.67;100.00;66521.78;6130529;23;20144;-93
2023/10/01 02:14:06;;;;;;;15.98;5.15;;;;;;;-145.67;100.00;66521.78;6180278;23;20013;-92
2023/10/01 02:16:35;;;;;;;17.35;4.60;;;;;;;-145.67;100.00;66521.78;6180306;23;20541;-94
2023/10/01 02:19:12;;;;;;;18.65;5.03;;;;;;;-145.67;100.00;66521.78;6180177;23;20071;-93
2023/10/01 02:22:00;;;;;;;14.10;4.43;;;;;;;-145.67;100.00;66521.78;6179701;23;20008;-93
2023/10/01 02:27:15;;;;;;;16.05;4.30;;;;;;;-145.67;100.00;66521.78;6180829;23;20004;-93
2023/10/01 02:32:28;;;;;;;21.27;5.00;;;;;;;-145.67;100.00;66521.78;6180344;23;20012;-91
2023/10/01 02:34:56;;;;;;;20.95;5.60;;;;;;;-145.67;100.00;66521.78;6180164;23;19997;-92
2023/10/01 02:37:29;;;;;;;25.52;5.43;;;;;;;-145.67;100.00;66521.78;6180560;23;20368;-94
2023/10/01 02:39:56;;;;;;;20.88;5.35;;;;;;;-145.67;100.00;66521.78;6180858;23;20089;-93
2023/10/01 02:42:22;;;;;;;16.73;5.05;;;;;;;-145.67;100.00;66521.78;6180738;23;20008;-93
2023/10/01 02:44:48;;;;;;;20.52;5.28;;;;;;;-145.67;100.00;66521.78;6154002;23;20080;-93
2023/10/01 02:47:18;;;;;;;22.05;5.43;;;;;;;-145.67;100.00;66521.78;6180647;23;20502;-92
2023/10/01 02:49:49;;;;;;;22.38;5.50;;;;;;;-145.67;100.00;66521.78;6180017;23;20012;-95
2023/10/01 02:52:36;;;;;;;21.25;4.85;;;;;;;-145.67;100.00;66521.78;6180579;23;20419;-93
2023/10/01 02:55:06;;;;;;;20.08;4.50;;;;;;;-145.67;100.00;66521.78;6180570;23;20005;-93
2023/10/01 02:57:33;;;;;;;19.52;5.20;;;;;;;-145.67;100.00;66521.78;6180401;23;20001;-94
2023/10/01 03:00:20;;;;;;;19.40;4.63;;;;;;;-145.67;100.00;66521.78;6180235;23;20080;-94
2023/10/01 03:02:51;;;;;;;16.67;4.65;;;;;;;-145.67;100.00;66521.78;6180409;23;20066;-95
2023/10/01 03:07:51;;;;;;;20.70;4.90;;;;;;;-145.67;100.00;66521.78;6158447;23;20015;-93
2023/10/01 03:10:28;;;;;;;22.27;6.00;;;;;;;-145.67;100.00;66521.78;6182526;23;20084;-94
2023/10/01 03:12:56;;;;;;;19.95;5.45;;;;;;;-145.67;100.00;66521.78;6182330;23;20001;-94
2023/10/01 03:15:25;;;;;;;15.32;5.22;;;;;;;-145.67;100.00;66521.78;6182678;23;20005;-94
2023/10/01 03:17:57;;;;;;;14.35;4.53;;;;;;;-145.67;100.00;66521.78;6182536;23;20008;-92
2023/10/01 03:28:26;;;;;;;20.00;5.53;;;;;;;-145.67;100.00;66521.78;6181433;23;20005;-93
2023/10/01 03:31:06;;;;;;;17.35;5.45;;;;;;;-145.67;100.00;66521.78;6182228;23;20004;-93
2023/10/01 03:33:39;;;;;;;22.17;5.00;;;;;;;-145.67;100.00;66521.78;6181931;23;20001;-94
2023/10/01 03:36:09;;;;;;;20.45;5.85;;;;;;;-145.67;100.00;66521.78;6182206;23;20437;-92
2023/10/01 03:38:39;;;;;;;19.53;5.93;;;;;;;-145.67;100.00;66521.78;6182393;23;20077;-93
2023/10/01 03:41:08;;;;;;;19.60;5.68;;;;;;;-145.67;100.00;66521.78;6182575;23;20009;-94
2023/10/01 03:43:37;;;;;;;21.50;6.10;;;;;;;-145.67;100.00;66521.78;6181892;23;20473;-95
2023/10/01 03:51:28;;;;;;;16.55;5.90;;;;;;;-145.67;100.00;66521.78;6181347;23;20437;-92
2023/10/01 03:53:59;;;;;;;19.25;5.93;;;;;;;-145.67;100.00;66521.78;6182665;23;20040;-93
2023/10/01 03:56:30;;;;;;;18.13;5.68;;;;;;;-145.67;100.00;66521.78;6183120;23;20009;-92
2023/10/01 03:58:56;;;;;;;21.02;6.60;;;;;;;-145.67;100.00;66521.78;6182311;23;20033;-93
2023/10/01 04:01:58;;;;;;;19.40;6.05;;;;;;;-145.67;100.00;66521.78;6188163;23;20012;-93
2023/10/01 04:04:20;;;;;;;20.23;6.32;;;;;;;-145.67;100.00;66521.78;6166925;23;20005;-92
2023/10/01 04:06:46;;;;;;;23.00;6.75;;;;;;;-145.67;100.00;66521.78;6136667;23;20324;-93
2023/10/01 04:09:11;;;;;;;17.10;6.80;;;;;;;-145.67;100.00;66521.78;6182580;23;20074;-93
2023/10/01 04:11:49;;;;;;;24.00;6.38;;;;;;;-145.67;100.00;66521.78;6181476;23;20013;-92
2023/10/01 04:14:17;;;;;;;19.17;6.43;;;;;;;-145.67;100.00;66521.78;6181582;23;19997;-92
2023/10/01 04:16:46;;;;;;;21.50;7.07;;;;;;;-145.67;100.00;66521.78;6181592;23;20009;-93
2023/10/01 04:19:12;;;;;;;19.23;5.75;;;;;;;-145.67;100.00;66521.78;6182936;23;20047;-93
2023/10/01 04:21:38;;;;;;;23.33;7.43;;;;;;;-145.67;100.00;66521.78;6182829;23;20086;-93
2023/10/01 04:24:03;;;;;;;22.40;6.95;;;;;;;-145.67;100.00;66521.78;6183427;23;19997;-94
2023/10/01 04:26:31;;;;;;;22.63;7.78;;;;;;;-145.67;100.00;66521.78;6182067;23;20431;-93
2023/10/01 04:28:59;;;;;;;24.90;7.47;;;;;;;-145.67;100.00;66521.78;6182289;23;20004;-92
2023/10/01 04:31:48;;;;;;;21.85;7.65;;;;;;;-145.67;100.00;66521.78;6181505;23;20005;-93
2023/10/01 04:34:14;;;;;;;22.02;7.55;;;;;;;-145.67;100.00;66521.78;6182213;23;20001;-92
2023/10/01 04:36:42;;;;;;;21.40;7.13;;;;;;;-145.67;100.00;66521.78;6181770;23;20009;-93
2023/10/01 04:39:08;;;;;;;21.50;7.00;;;;;;;-145.67;100.00;66521.78;6182069;23;20368;-93
2023/10/01 04:41:34;;;;;;;21.77;7.18;;;;;;;-145.67;100.00;66521.78;6181555;23;20009;-94
2023/10/01 04:44:06;;;;;;;23.88;7.53;;;;;;;-145.67;100.00;66521.78;6181330;23;20001;-92
2023/10/01 04:46:36;;;;;;;26.38;7.50;;;;;;;-145.67;100.00;66521.78;6181560;23;20027;-94
2023/10/01 04:49:08;;;;;;;22.73;7.68;;;;;;;-145.67;100.00;66521.78;6181928;23;20001;-93
2023/10/01 04:51:45;;;;;;;;;;;;;;;-145.67;100.00;66521.78;6182001;23;20040;-93
2023/10/01 04:54:17;;;;;;;22.58;7.47;;;;;;;-145.67;100.00;66521.78;6182307;23;19911;-93
2023/10/01 04:56:48;;;;;;;20.77;7.55;;;;;;;-145.67;100.00;66521.78;6181285;23;20013;-93
2023/10/01 04:59:14;;;;;;;25.73;8.15;;;;;;;-145.67;100.00;66521.78;6181418;23;20008;-92
2023/10/01 05:01:40;;;;;;;23.90;7.55;;;;;;;-145.67;100.00;66521.78;6155368;23;20001;-93
2023/10/01 05:04:05;;;;;;;24.40;8.07;;;;;;;-145.67;100.00;66521.78;6182360;23;20001;-94
2023/10/01 05:06:31;;;;;;;24.13;7.35;;;;;;;-145.67;100.00;66521.78;6181484;23;20005;-93
2023/10/01 05:08:58;;;;;;;25.73;7.80;;;;;;;-145.67;100.00;66521.78;6183213;23;20011;-93
2023/10/01 05:11:29;;;;;;;20.95;7.35;;;;;;;-145.67;100.00;66521.78;6155655;23;20007;-94
2023/10/01 05:13:58;;;;;;;29.15;8.02;;;;;;;-145.67;100.00;66521.78;6159524;23;20315;-91
2023/10/01 05:16:26;;;;;;;27.27;8.40;;;;;;;-145.67;100.00;66521.78;6182187;23;20020;-93
2023/10/01 05:19:09;;;;;;;24.45;8.43;;;;;;;-145.67;100.00;66521.78;6186920;23;20057;-94
2023/10/01 05:21:46;;;;;;;25.70;8.38;;;;;;;-145.67;100.00;66521.78;6197606;23;20307;-94
2023/10/01 05:24:16;;;;;;;28.33;7.57;;;;;;;-145.67;100.00;66521.78;6196745;23;20005;-93
2023/10/01 05:26:43;;;;;;;31.58;8.88;;;;;;;-145.67;100.00;66521.78;6191276;23;20088;-93
2023/10/01 05:29:13;;;;;;;25.20;7.70;;;;;;;-145.67;100.00;66521.78;6189925;23;20005;-93
2023/10/01 05:31:39;;;;;;;27.33;8.63;;;;;;;-145.67;100.00;66521.78;6182513;23;20001;-93
2023/10/01 05:34:05;;;;;;;26.40;8.32;;;;;;;-145.67;100.00;66521.78;6156441;23;20072;-93
2023/10/01 05:36:32;;;;;;;29.27;9.10;;;;;;;-145.67;100.00;66521.78;6182433;23;20013;-93
2023/10/01 05:39:00;;;;;;;27.80;8.77;;;;;;;-145.67;100.00;66521.78;6181554;23;20009;-94
2023/10/01 05:41:32;;;;;;;23.25;8.50;;;;;;;-145.67;100.00;66521.78;6181980;23;20438;-95
2023/10/01 05:44:01;;;;;;;21.73;8.25;;;;;;;-145.67;100.00;66521.78;6181580;23;19997;-94
2023/10/01 05:46:27;;;;;;;26.33;8.80;;;;;;;-145.67;100.00;66521.78;6181867;23;20009;-95
2023/10/01 05:48:55;;;;;;;24.70;8.32;;;;;;;-145.67;100.00;66521.78;6182084;23;20036;-92
2023/10/01 05:51:30;;;;;;;28.02;8.27;;;;;;;-145.67;100.00;66521.78;6182313;23;20004;-93
2023/10/01 05:53:59;;;;;;;28.02;8.35;;;;;;;-145.67;100.00;66521.78;6181753;23;20435;-93
2023/10/01 05:56:36;;;;;;;21.95;8.68;;;;;;;-145.67;100.00;66521.78;6181297;23;20029;-95
2023/10/01 05:59:03;;;;;;;25.02;8.20;;;;;;;-145.67;100.00;66521.78;6180777;23;20005;-91
2023/10/01 06:01:32;;;;;;;28.00;8.55;;;;;;;-145.67;100.00;66521.78;6182426;23;20035;-94
2023/10/01 06:03:59;;;;;;;32.85;8.85;;;;;;;-145.67;100.00;66521.78;6181473;23;20469;-95
2023/10/01 06:06:24;;;;;;;37.90;9.60;;;;;;;-145.67;100.00;66521.78;6181632;23;20013;-95
2023/10/01 06:08:58;;;;;;;27.33;7.97;;;;;;;-145.67;100.00;66521.78;6180892;23;20040;-94
2023/10/01 06:11:38;;;;;;;31.42;9.10;;;;;;;-145.67;100.00;66521.78;6181297;23;20476;-93
2023/10/01 06:14:04;;;;;;;30.08;9.07;;;;;;;-145.67;100.00;66521.78;6180358;23;20023;-95
2023/10/01 06:16:30;;;;;;;25.52;8.35;;;;;;;-145.67;100.00;66521.78;6181596;23;20008;-93
2023/10/01 06:18:56;;;;;;;26.65;8.57;;;;;;;-145.67;100.00;66521.78;6180783;23;20363;-94
2023/10/01 06:21:24;;;;;;;26.83;8.95;;;;;;;-145.67;100.00;66521.78;6181193;23;20000;-93
2023/10/01 06:23:54;;;;;;;25.27;8.65;;;;;;;-145.67;100.00;66521.78;6154093;23;20012;-93
2023/10/01 06:26:36;;;;;;;24.10;8.10;;;;;;;-145.67;100.00;66521.78;6181217;23;20000;-93
2023/10/01 06:29:02;;;;;;;23.65;7.97;;;;;;;-145.67;100.00;66521.78;6180365;23;20024;-94
2023/10/01 06:31:29;;;;;;;20.00;8.32;;;;;;;-145.67;100.00;66521.78;6180938;23;20004;-92
2023/10/01 06:33:55;;;;;;;24.73;8.18;;;;;;;-145.67;100.00;66521.78;6181645;23;20001;-94
2023/10/01 06:36:21;;;;;;;24.58;7.80;;;;;;;-145.67;100.00;66521.78;6180692;23;20009;-93
2023/10/01 06:38:48;;;;;;;22.05;8.15;;;;;;;-145.67;100.00;66521.78;6180155;23;20005;-93
2023/10/01 06:41:19;;;;;;;22.65;7.68;;;;;;;-145.67;100.00;66521.78;6180714;23;20104;-93
2023/10/01 06:43:54;;;;;;;22.27;8.10;;;;;;;-145.67;100.00;66521.78;6179373;23;20005;-93
2023/10/01 06:46:22;;;;;;;25.45;8.07;;;;;;;-145.67;100.00;66521.78;6186351;23;20042;-94
2023/10/01 06:48:51;;;;;;;23.40;8.50;;;;;;;-145.67;100.00;66521.78;6158913;23;20001;-94
2023/10/01 06:51:21;;;;;;;26.13;8.93;;;;;;;-145.67;100.00;66521.78;6184876;23;19997;-94
2023/10/01 06:53:53;;;;;;;27.85;9.48;;;;;;;-145.67;100.00;66521.78;6181077;23;19997;-93
2023/10/01 06:56:21;;;;;;;30.55;8.90;;;;;;;-145.67;100.00;66521.78;6180206;23;20005;-93
2023/10/01 07:01:50;;;;;;;23.73;8.00;;;;;;;-145.67;100.00;66521.78;6181506;23;20083;-91
2023/10/01 07:04:17;;;;;;;22.33;8.32;;;;;;;-145.67;100.00;66521.78;6179496;23;20001;-91
2023/10/01 07:06:44;;;;;;;26.83;8.32;;;;;;;-145.67;100.00;66521.78;6153369;23;20032;-93
2023/10/01 07:09:32;;;;;;;21.17;8.48;;;;;;;-145.67;100.00;66521.78;6178601;23;20044;-93
2023/10/01 07:12:01;;;;;;;21.42;8.65;;;;;;;-145.67;100.00;66521.78;6156030;23;20080;-92
2023/10/01 07:14:38;;;;;;;19.05;7.97;;;;;;;-145.67;100.00;66521.78;6179150;23;19997;-92
2023/10/01 07:17:13;;;;;;;24.58;8.82;;;;;;;-145.67;100.00;66521.78;6179913;23;20035;-92
2023/10/01 07:19:42;;;;;;;23.88;9.02;;;;;;;-145.67;100.00;66521.78;6179952;23;20321;-92
2023/10/01 07:22:15;;;;;;;20.05;8.02;;;;;;;-145.67;100.00;66521.78;6180271;23;20001;-91
2023/10/01 07:24:41;;;;;;;21.10;8.27;;;;;;;-145.67;100.00;66521.78;6180587;23;20088;-92
2023/10/01 07:27:10;;;;;;;22.85;7.72;;;;;;;-145.67;100.00;66521.78;6181298;23;20005;-95
2023/10/01 07:29:41;;;;;;;26.35;9.15;;;;;;;-145.67;100.00;66521.78;6181509;23;20087;-94
2023/10/01 07:32:09;;;;;;;18.88;8.32;;;;;;;-145.67;100.00;66521.78;6181274;23;20001;-92
2023/10/01 07:34:42;;;;;;;22.23;8.25;;;;;;;-145.67;100.00;66521.78;6181420;23;20005;-92
2023/10/01 07:37:08;;;;;;;20.30;8.05;;;;;;;-145.67;100.00;66521.78;6182117;23;20084;-93
2023/10/01 07:39:36;;;;;;;20.17;8.02;;;;;;;-145.67;100.00;66521.78;6184974;23;20068;-95
2023/10/01 07:42:05;;;;;;;19.15;8.23;;;;;;;-145.67;100.00;66521.78;6182973;23;20078;-93
2023/10/01 07:44:32;;;;;;;21.60;8.45;;;;;;;-145.67;100.00;66521.78;6181017;23;20007;-93
2023/10/01 07:46:59;;;;;;;18.70;7.63;;;;;;;-145.67;100.00;66521.78;6186254;23;20047;-92
2023/10/01 07:49:41;;;;;;;17.70;7.07;;;;;;;-145.67;100.00;66521.78;6185417;23;20039;-92
2023/10/01 07:52:07;;;;;;;20.17;8.55;;;;;;;-145.67;100.00;66521.78;6184861;23;20012;-93
2023/10/01 07:54:33;;;;;;;23.20;7.47;;;;;;;-145.67;100.00;66521.78;6185445;23;19997;-94
2023/10/01 07:56:58;;;;;;;18.65;7.85;;;;;;;-145.67;100.00;66521.78;6188335;23;20028;-95
2023/10/01 07:59:33;;;;;;;21.67;7.40;;;;;;;-145.67;100.00;66521.78;6182928;23;20005;-95
2023/10/01 08:07:22;;;;;;;22.00;7.72;;;;;;;-145.67;100.00;66521.78;6194236;23;19997;-93
2023/10/01 08:09:51;;;;;;;22.67;8.40;;;;;;;-145.67;100.00;66521.78;6187482;23;20039;-93
2023/10/01 08:12:19;;;;;;;22.02;8.50;;;;;;;-145.67;100.00;66521.78;6183553;23;20008;-92
2023/10/01 08:15:15;;;;;;;16.25;6.93;;;;;;;-145.67;100.00;66521.78;6181930;23;20068;-94
2023/10/01 08:17:34;;;;;;;20.90;8.20;;;;;;;-145.67;100.00;66521.78;6182744;23;20009;-94
2023/10/01 08:20:14;;;;;;;20.80;7.53;;;;;;;-145.67;100.00;66521.78;6156731;23;20382;-93
2023/10/01 08:23:09;;;;;;;19.42;8.40;;;;;;;-145.67;100.00;66521.78;6181350;23;20001;-93
2023/10/01 08:25:42;;;;;;;17.48;8.18;;;;;;;-145.67;100.00;66521.78;6161417;23;20027;-92
2023/10/01 08:30:43;;;;;;;20.58;8.25;;;;;;;-145.67;100.00;66521.78;6181949;23;20009;-93
2023/10/01 08:33:32;;;;;;;22.10;8.55;;;;;;;-145.67;100.00;66521.78;6159192;23;20043;-92
2023/10/01 08:36:01;;;;;;;26.63;8.45;;;;;;;-145.67;100.00;66521.78;6160692;23;20716;-93
2023/10/01 08:38:29;;;;;;;20.75;8.60;;;;;;;-145.67;100.00;66521.78;6181295;23;20080;-94
2023/10/01 08:41:00;;;;;;;22.23;9.43;;;;;;;-145.67;100.00;66521.78;6182905;23;20036;-95
2023/10/01 08:43:30;;;;;;;19.42;8.35;;;;;;;-145.67;100.00;66521.78;6183786;23;20028;-94
2023/10/01 08:46:00;;;;;;;20.98;8.85;;;;;;;-145.67;100.00;66521.78;6184135;23;20001;-94
2023/10/01 08:48:35;;;;;;;21.83;8.60;;;;;;;-145.67;100.00;66521.78;6156781;23;20008;-95
2023/10/01 08:51:08;;;;;;;23.58;9.05;;;;;;;-145.67;100.00;66521.78;6134120;23;20422;-93
2023/10/01 08:53:36;;;;;;;23.92;8.93;;;;;;;-145.67;100.00;66521.78;6157221;23;20008;-94
2023/10/01 08:56:04;;;;;;;23.45;8.82;;;;;;;-145.67;100.00;66521.78;6181851;23;20465;-93
2023/10/01 08:58:41;;;;;;;21.67;8.68;;;;;;;-145.67;100.00;66521.78;6182945;23;20033;-93
2023/10/01 09:01:11;;;;;;;21.33;9.32;;;;;;;-145.67;100.00;66521.78;6182227;23;20308;-92
2023/10/01 09:03:39;;;;;;;26.55;9.00;;;;;;;-145.67;100.00;66521.78;6181677;23;20017;-93
2023/10/01 09:06:24;;;;;;;23.45;8.82;;;;;;;-145.67;100.00;66521.78;6182681;23;20009;-95
2023/10/01 09:08:54;;;;;;;21.35;8.88;;;;;;;-145.67;100.00;66521.78;6159677;23;20048;-94
2023/10/01 09:11:32;;;;;;;20.15;8.48;;;;;;;-145.67;100.00;66521.78;6181060;23;20009;-92
2023/10/01 09:13:58;;;;;;;21.83;8.75;;;;;;;-145.67;100.00;66521.78;6181658;23;19993;-94
2023/10/01 09:16:30;;;;;;;19.48;8.38;;;;;;;-145.67;100.00;66521.78;6181589;23;20304;-92
2023/10/01 09:19:30;;;;;;;18.95;8.55;;;;;;;-145.67;100.00;66521.78;6182134;23;20082;-94
2023/10/01 09:21:44;;;;;;;23.48;8.52;;;;;;;-145.67;100.00;66521.78;6179756;23;20012;-93
2023/10/01 09:24:41;;;;;;;20.70;8.52;;;;;;;-145.67;100.00;66521.78;6157684;23;20007;-93
2023/10/01 09:27:09;;;;;;;21.67;8.88;;;;;;;-145.67;100.00;66521.78;6181315;23;20001;-95
2023/10/01 09:29:48;;;;;;;23.30;9.25;;;;;;;-145.67;100.00;66521.78;6156071;23;20039;-95
2023/10/01 09:32:14;;;;;;;20.20;8.40;;;;;;;-145.67;100.00;66521.78;6185491;23;20100;-94
2023/10/01 09:34:53;;;;;;;21.27;8.25;;;;;;;-145.67;100.00;66521.78;6187889;23;20431;-95
2023/10/01 09:37:34;;;;;;;21.27;8.70;;;;;;;-145.67;100.00;66521.78;6183931;23;20067;-92
2023/10/01 09:42:57;;;;;;;21.02;8.55;;;;;;;-145.67;100.00;66521.78;6185473;23;20016;-93
2023/10/01 09:45:28;;;;;;;17.95;7.85;;;;;;;-145.67;100.00;66521.78;6182272;23;20016;-93
2023/10/01 09:48:03;;;;;;;20.75;8.43;;;;;;;-145.67;100.00;66521.78;6155131;23;20019;-95
2023/10/01 09:50:39;;;;;;;22.80;8.52;;;;;;;-145.67;100.00;66521.78;6180906;23;20412;-94
2023/10/01 09:53:12;;;;;;;21.50;10.02;;;;;;;-145.67;100.00;66521.78;6156864;23;20004;-94
2023/10/01 09:55:47;;;;;;;25.75;9.07;;;;;;;-145.67;100.00;66521.78;6181418;23;20000;-95
2023/10/01 09:58:25;;;;;;;22.50;9.55;;;;;;;-145.67;100.00;66521.78;6181435;23;20379;-92
2023/10/01 10:00:52;;;;;;;21.10;8.65;;;;;;;-145.67;100.00;66521.78;6181129;23;20004;-94
2023/10/01 10:03:18;;;;;;;24.83;8.95;;;;;;;-145.67;100.00;66521.78;6158400;23;20008;-93
2023/10/01 10:05:46;;;;;;;24.00;9.10;;;;;;;-145.67;100.00;66521.78;6185062;23;20073;-93
2023/10/01 10:08:15;;;;;;;21.27;8.73;;;;;;;-145.67;100.00;66521.78;6185120;23;20025;-94
2023/10/01 10:10:52;;;;;;;20.42;9.02;;;;;;;-145.67;100.00;66521.78;6183625;23;20009;-91
